Time;durP1;ratioP1;P1;durP2;ratioP2;P2;SDS_P1;SDS_P2;PMS_P1;PMS_P2;Temp;Humidity;BMP_temperature;BMP_pressure;BME280_temperature;BME280_humidity;BME280_pressure;Samples;Min_cycle;Max_cycle;Signal;HPM_P1;HPM_P2
2023/04/11 00:00:39;;;;;;;;;;;21.20;46.70;;;;;;1560028;75;721;-68
2023/04/11 00:02:40;;;;;;;;;;;21.20;46.80;;;;;;1557265;75;803;-68
2023/04/11 00:04:42;;;;;;;;;;;21.20;46.90;;;;;;1558369;75;1941;-68
2023/04/11 00:06:44;;;;;;;;;;;21.20;46.80;;;;;;1539463;75;780;-68
2023/04/11 00:08:46;;;;;;;;;;;21.10;46.90;;;;;;1553477;75;739;-68
2023/04/11 00:10:48;;;;;;;;;;;21.20;46.90;;;;;;1544218;75;668;-68
2023/04/11 00:12:51;;;;;;;;;;;21.10;46.90;;;;;;1548709;76;558;-68
2023/04/11 00:14:54;;;;;;;;;;;21.10;46.80;;;;;;1547957;75;1141;-67
2023/04/11 00:16:56;;;;;;;;;;;21.20;46.80;;;;;;1555096;75;737;-68
2023/04/11 00:18:57;;;;;;;;;;;21.10;47.10;;;;;;1558861;75;755;-68
2023/04/11 00:20:59;;;;;;;;;;;21.10;47.20;;;;;;1555533;75;679;-68
2023/04/11 00:23:01;;;;;;;;;;;21.10;47.20;;;;;;1555909;75;729;-70
2023/04/11 00:25:03;;;;;;;;;;;21.10;47.30;;;;;;1548088;75;1929;-69
2023/04/11 00:27:05;;;;;;;;;;;21.10;47.20;;;;;;1547266;75;754;-70
2023/04/11 00:29:07;;;;;;;;;;;21.10;47.20;;;;;;1561477;75;784;-68
2023/04/11 00:31:11;;;;;;;;;;;21.20;47.10;;;;;;1548445;75;789;-68
2023/04/11 00:33:13;;;;;;;;;;;21.20;47.10;;;;;;1547346;75;760;-68
2023/04/11 00:35:15;;;;;;;;;;;21.20;47.10;;;;;;1557889;75;1098;-68
2023/04/11 00:37:20;;;;;;;;;;;21.20;47.00;;;;;;1561551;75;1030;-68
2023/04/11 00:39:21;;;;;;;;;;;21.30;47.10;;;;;;1559258;74;1680;-68
2023/04/11 00:41:23;;;;;;;;;;;21.20;46.90;;;;;;1556562;75;766;-69
2023/04/11 00:43:25;;;;;;;;;;;21.30;47.00;;;;;;1566004;75;1149;-69
2023/04/11 00:45:27;;;;;;;;;;;21.30;46.90;;;;;;1552229;75;1947;-68
2023/04/11 00:47:29;;;;;;;;;;;21.20;46.80;;;;;;1547925;75;1073;-69
2023/04/11 00:49:31;;;;;;;;;;;21.20;46.70;;;;;;1549701;75;743;-69
2023/04/11 00:51:33;;;;;;;;;;;21.30;46.80;;;;;;1546805;75;758;-68
2023/04/11 00:53:35;;;;;;;;;;;21.30;46.80;;;;;;1552454;75;1560;-66
2023/04/11 00:55:37;;;;;;;;;;;21.30;46.90;;;;;;1558074;75;734;-65
2023/04/11 00:57:40;;;;;;;;;;;21.30;46.80;;;;;;1550124;75;677;-66
2023/04/11 00:59:42;;;;;;;;;;;21.20;46.80;;;;;;1551921;75;614;-66
2023/04/11 01:01:44;;;;;;;;;;;21.20;46.80;;;;;;1549567;75;740;-66
2023/04/11 01:03:47;;;;;;;;;;;21.20;46.70;;;;;;1543540;75;1175;-67
2023/04/11 01:05:48;;;;;;;;;;;21.20;46.70;;;;;;1553883;75;1921;-65
2023/04/11 01:07:50;;;;;;;;;;;21.30;46.70;;;;;;1549995;75;1333;-66
2023/04/11 01:09:52;;;;;;;;;;;21.30;46.80;;;;;;1560082;75;736;-66
2023/04/11 01:11:55;;;;;;;;;;;21.20;46.50;;;;;;1557061;75;733;-66
2023/04/11 01:13:56;;;;;;;;;;;21.20;46.70;;;;;;1553410;75;1153;-68
2023/04/11 01:15:58;;;;;;;;;;;21.20;46.70;;;;;;1556471;75;754;-68
2023/04/11 01:18:00;;;;;;;;;;;21.30;46.80;;;;;;1552261;75;761;-67
2023/04/11 01:20:06;;;;;;;;;;;21.20;46.60;;;;;;1543200;75;793;-67
2023/04/11 01:22:06;;;;;;;;;;;21.30;46.70;;;;;;1562707;75;1556;-66
2023/04/11 01:24:08;;;;;;;;;;;21.20;46.70;;;;;;1557921;75;1116;-66
2023/04/11 01:26:10;;;;;;;;;;;21.30;46.80;;;;;;1554255;75;1952;-67
2023/04/11 01:28:12;;;;;;;;;;;21.20;46.60;;;;;;1554382;75;800;-67
2023/04/11 01:30:14;;;;;;;;;;;21.20;46.70;;;;;;1549050;75;798;-66
2023/04/11 01:32:16;;;;;;;;;;;21.20;46.80;;;;;;1549233;75;830;-66
2023/04/11 01:34:17;;;;;;;;;;;21.30;46.90;;;;;;1555113;75;1146;-66
2023/04/11 01:36:19;;;;;;;;;;;21.40;46.60;;;;;;1560801;75;1316;-66
2023/04/11 01:38:21;;;;;;;;;;;21.30;46.70;;;;;;1550033;75;706;-67
2023/04/11 01:40:23;;;;;;;;;;;21.30;46.70;;;;;;1566246;75;666;-66
2023/04/11 01:42:25;;;;;;;;;;;21.40;46.70;;;;;;1555245;75;676;-66
2023/04/11 01:44:27;;;;;;;;;;;21.30;46.60;;;;;;1553354;75;1102;-67
2023/04/11 01:46:29;;;;;;;;;;;21.30;46.60;;;;;;1551537;75;1946;-67
2023/04/11 01:48:32;;;;;;;;;;;21.30;46.70;;;;;;1545546;75;1023;-67
2023/04/11 01:50:34;;;;;;;;;;;21.40;46.60;;;;;;1548001;75;1638;-67
2023/04/11 01:52:36;;;;;;;;;;;21.30;46.70;;;;;;1559420;75;648;-67
2023/04/11 01:54:38;;;;;;;;;;;21.30;46.70;;;;;;1551312;75;1123;-67
2023/04/11 01:56:40;;;;;;;;;;;21.30;46.70;;;;;;1550718;75;791;-67
2023/04/11 01:58:42;;;;;;;;;;;21.40;46.50;;;;;;1544906;75;802;-67
2023/04/11 02:00:44;;;;;;;;;;;21.30;46.50;;;;;;1550143;75;706;-67
2023/04/11 02:02:46;;;;;;;;;;;21.40;46.50;;;;;;1550494;75;773;-69
2023/04/11 02:04:48;;;;;;;;;;;21.40;46.50;;;;;;1551269;75;1672;-67
2023/04/11 02:06:50;;;;;;;;;;;21.40;46.50;;;;;;1551016;75;1927;-68
2023/04/11 02:08:52;;;;;;;;;;;21.40;46.50;;;;;;1548300;75;706;-68
2023/04/11 02:10:54;;;;;;;;;;;21.30;46.50;;;;;;1551862;75;569;-68
2023/04/11 02:12:56;;;;;;;;;;;21.30;46.50;;;;;;1550626;75;925;-68
2023/04/11 02:14:58;;;;;;;;;;;21.30;46.50;;;;;;1548244;75;1125;-67
2023/04/11 02:17:00;;;;;;;;;;;21.30;46.50;;;;;;1552562;75;690;-67
2023/04/11 02:19:02;;;;;;;;;;;21.30;46.50;;;;;;1552546;75;1279;-68
2023/04/11 02:21:05;;;;;;;;;;;21.30;46.50;;;;;;1548795;75;893;-68
2023/04/11 02:23:07;;;;;;;;;;;21.30;46.50;;;;;;1550369;75;680;-67
2023/04/11 02:25:09;;;;;;;;;;;21.30;46.60;;;;;;1555225;75;1117;-68
2023/04/11 02:27:11;;;;;;;;;;;21.30;46.60;;;;;;1555613;75;1940;-68
2023/04/11 02:29:12;;;;;;;;;;;21.30;46.50;;;;;;1566559;75;736;-68
2023/04/11 02:31:14;;;;;;;;;;;21.20;46.50;;;;;;1553597;75;733;-67
2023/04/11 02:33:16;;;;;;;;;;;21.30;46.70;;;;;;1564903;75;1557;-67
2023/04/11 02:35:18;;;;;;;;;;;21.20;46.50;;;;;;1534024;75;1116;-66
2023/04/11 02:37:20;;;;;;;;;;;21.20;46.60;;;;;;1544324;75;589;-66
2023/04/11 02:39:25;;;;;;;;;;;21.20;46.60;;;;;;1546974;75;699;-67
2023/04/11 02:41:27;;;;;;;;;;;21.20;46.70;;;;;;1551489;75;632;-67
2023/04/11 02:43:29;;;;;;;;;;;21.20;46.70;;;;;;1556066;75;1156;-68
2023/04/11 02:45:31;;;;;;;;;;;21.30;46.80;;;;;;1548152;75;1921;-67
2023/04/11 02:47:33;;;;;;;;;;;21.20;46.60;;;;;;1557862;74;1083;-67
2023/04/11 02:49:35;;;;;;;;;;;21.20;46.50;;;;;;1565816;74;655;-68
2023/04/11 02:51:37;;;;;;;;;;;21.20;46.60;;;;;;1563882;74;680;-68
2023/04/11 02:53:39;;;;;;;;;;;21.20;46.70;;;;;;1569095;74;1194;-67
2023/04/11 02:55:42;;;;;;;;;;;21.30;46.80;;;;;;1565953;74;766;-67
2023/04/11 02:57:44;;;;;;;;;;;21.20;46.80;;;;;;1556438;74;773;-69
2023/04/11 02:59:45;;;;;;;;;;;21.20;46.80;;;;;;1564288;74;1571;-69
2023/04/11 03:01:48;;;;;;;;;;;21.20;46.80;;;;;;1564650;74;658;-69
2023/04/11 03:03:49;;;;;;;;;;;21.20;46.70;;;;;;1563971;74;1180;-69
2023/04/11 03:05:51;;;;;;;;;;;21.20;46.60;;;;;;1576925;74;1927;-69
2023/04/11 03:07:53;;;;;;;;;;;21.30;46.70;;;;;;1571887;74;642;-69
2023/04/11 03:09:55;;;;;;;;;;;21.30;46.60;;;;;;1568991;74;726;-67
2023/04/11 03:11:57;;;;;;;;;;;21.30;46.70;;;;;;1577797;74;577;-68
2023/04/11 03:13:59;;;;;;;;;;;21.30;46.70;;;;;;1572573;74;1628;-67
2023/04/11 03:16:01;;;;;;;;;;;21.30;46.70;;;;;;1564589;74;786;-67
2023/04/11 03:18:03;;;;;;;;;;;21.20;47.00;;;;;;1569393;74;701;-67
2023/04/11 03:20:06;;;;;;;;;;;21.20;47.10;;;;;;1565133;74;754;-66
2023/04/11 03:22:09;;;;;;;;;;;21.20;47.10;;;;;;1566216;74;726;-66
2023/04/11 03:24:11;;;;;;;;;;;21.30;47.00;;;;;;1565770;74;1155;-67
2023/04/11 03:26:13;;;;;;;;;;;21.30;46.80;;;;;;1561070;74;1923;-65
2023/04/11 03:28:15;;;;;;;;;;;21.30;46.80;;;;;;1574396;74;1567;-66
2023/04/11 03:30:17;;;;;;;;;;;21.20;46.50;;;;;;1569212;74;803;-66
2023/04/11 03:32:19;;;;;;;;;;;21.30;46.50;;;;;;1564570;74;767;-66
2023/04/11 03:34:22;;;;;;;;;;;21.30;46.50;;;;;;1553716;74;1154;-66
2023/04/11 03:36:30;;;;;;;;;;;21.30;46.60;;;;;;1567780;74;1012;-67
2023/04/11 03:38:28;;;;;;;;;;;21.30;46.60;;;;;;1568199;74;1628;-67
2023/04/11 03:40:30;;;;;;;;;;;21.30;46.60;;;;;;1565981;74;794;-66
2023/04/11 03:42:31;;;;;;;;;;;21.30;46.50;;;;;;1563818;74;1571;-65
2023/04/11 03:44:33;;;;;;;;;;;21.20;46.40;;;;;;1571080;74;1135;-65
2023/04/11 03:46:35;;;;;;;;;;;21.30;46.50;;;;;;1568097;74;1936;-65
2023/04/11 03:48:37;;;;;;;;;;;21.20;46.40;;;;;;1553251;74;1103;-65
2023/04/11 03:50:39;;;;;;;;;;;21.30;46.50;;;;;;1552496;75;771;-65
2023/04/11 03:52:41;;;;;;;;;;;21.30;46.50;;;;;;1551399;75;730;-65
2023/04/11 03:54:43;;;;;;;;;;;21.20;46.40;;;;;;1549969;75;1172;-65
2023/04/11 03:56:45;;;;;;;;;;;21.20;46.40;;;;;;1559859;75;1560;-68
2023/04/11 03:58:47;;;;;;;;;;;21.20;46.40;;;;;;1540948;75;700;-67
2023/04/11 04:00:49;;;;;;;;;;;21.20;46.50;;;;;;1556222;75;697;-67
2023/04/11 04:02:51;;;;;;;;;;;21.20;46.60;;;;;;1556554;75;734;-67
2023/04/11 04:05:00;;;;;;;;;;;21.20;46.70;;;;;;1555881;75;1157;-67
2023/04/11 04:07:00;;;;;;;;;;;21.20;46.70;;;;;;1547296;75;1910;-67
2023/04/11 04:09:03;;;;;;;;;;;21.20;46.60;;;;;;1552629;75;788;-67
2023/04/11 04:11:05;;;;;;;;;;;21.20;46.70;;;;;;1552699;75;1565;-67
2023/04/11 04:13:07;;;;;;;;;;;21.10;46.70;;;;;;1562838;75;771;-67
2023/04/11 04:15:10;;;;;;;;;;;21.10;46.70;;;;;;1553740;75;1089;-67
2023/04/11 04:17:12;;;;;;;;;;;21.10;46.80;;;;;;1550537;75;613;-67
2023/04/11 04:19:14;;;;;;;;;;;21.20;46.80;;;;;;1552424;75;718;-67
2023/04/11 04:21:16;;;;;;;;;;;21.10;46.70;;;;;;1551119;75;669;-67
2023/04/11 04:23:18;;;;;;;;;;;21.10;46.80;;;;;;1552455;75;773;-68
2023/04/11 04:25:20;;;;;;;;;;;21.20;46.80;;;;;;1546615;75;1548;-68
2023/04/11 04:27:23;;;;;;;;;;;21.20;46.80;;;;;;1551739;75;1927;-68
2023/04/11 04:29:32;;;;;;;;;;;21.20;46.80;;;;;;1550861;75;730;-68
2023/04/11 04:31:32;;;;;;;;;;;21.20;46.80;;;;;;1549677;75;1510;-66
2023/04/11 04:33:34;;;;;;;;;;;21.20;46.80;;;;;;1546970;75;1609;-67
2023/04/11 04:35:36;;;;;;;;;;;21.10;46.80;;;;;;1551771;75;734;-66
2023/04/11 04:37:38;;;;;;;;;;;21.10;46.80;;;;;;1549914;75;725;-66
2023/04/11 04:39:40;;;;;;;;;;;21.10;46.90;;;;;;1549294;75;1616;-66
2023/04/11 04:41:47;;;;;;;;;;;21.10;46.90;;;;;;1555494;75;736;-66
2023/04/11 04:43:49;;;;;;;;;;;21.10;46.90;;;;;;1544841;75;1150;-66
2023/04/11 04:45:51;;;;;;;;;;;21.10;46.80;;;;;;1547617;75;573;-66
2023/04/11 04:47:53;;;;;;;;;;;21.10;46.80;;;;;;1538817;75;1941;-66
2023/04/11 04:49:55;;;;;;;;;;;21.10;46.80;;;;;;1566965;75;1129;-66
2023/04/11 04:51:57;;;;;;;;;;;21.20;46.80;;;;;;1569191;74;732;-66
2023/04/11 04:53:59;;;;;;;;;;;21.10;46.80;;;;;;1571225;74;1543;-66
2023/04/11 04:56:01;;;;;;;;;;;21.10;46.80;;;;;;1554750;76;784;-68
2023/04/11 04:58:03;;;;;;;;;;;21.10;46.80;;;;;;1562759;74;616;-67
2023/04/11 05:00:10;;;;;;;;;;;21.10;46.90;;;;;;1563407;75;782;-67
2023/04/11 05:02:09;;;;;;;;;;;21.10;47.00;;;;;;1567397;74;1640;-67
2023/04/11 05:04:11;;;;;;;;;;;21.10;46.80;;;;;;1568222;75;1136;-67
2023/04/11 05:06:12;;;;;;;;;;;21.00;47.00;;;;;;1568662;74;1553;-67
2023/04/11 05:08:15;;;;;;;;;;;21.00;47.10;;;;;;1566318;74;1930;-67
2023/04/11 05:10:17;;;;;;;;;;;21.10;47.10;;;;;;1568956;75;723;-67
2023/04/11 05:12:25;;;;;;;;;;;21.10;47.10;;;;;;1568623;75;712;-67
2023/04/11 05:14:22;;;;;;;;;;;21.10;46.90;;;;;;1562473;75;1552;-67
2023/04/11 05:16:24;;;;;;;;;;;21.20;46.70;;;;;;1564733;74;697;-67
2023/04/11 05:18:28;;;;;;;;;;;21.20;46.70;;;;;;1562935;74;757;-67
2023/04/11 05:20:30;;;;;;;;;;;21.20;46.60;;;;;;1568390;74;1582;-69
2023/04/11 05:22:32;;;;;;;;;;;21.30;46.60;;;;;;1568810;74;775;-67
2023/04/11 05:24:33;;;;;;;;;;;21.20;46.50;;;;;;1559175;74;1110;-68
2023/04/11 05:26:35;;;;;;;;;;;21.20;46.50;;;;;;1567063;74;1930;-66
2023/04/11 05:28:37;;;;;;;;;;;21.20;46.40;;;;;;1568115;74;732;-67
2023/04/11 05:30:39;;;;;;;;;;;21.30;46.50;;;;;;1567202;74;599;-67
2023/04/11 05:32:41;;;;;;;;;;;21.30;46.60;;;;;;1568370;74;768;-67
2023/04/11 05:34:53;;;;;;;;;;;21.30;46.70;;;;;;1567213;74;1517;-67
2023/04/11 05:36:55;;;;;;;;;;;21.30;46.70;;;;;;1564769;75;748;-67
2023/04/11 05:38:57;;;;;;;;;;;21.20;46.50;;;;;;1572744;74;773;-67
2023/04/11 05:40:59;;;;;;;;;;;21.20;46.60;;;;;;1567971;74;695;-67
2023/04/11 05:43:01;;;;;;;;;;;21.20;46.60;;;;;;1567850;74;667;-67
2023/04/11 05:45:03;;;;;;;;;;;21.20;46.70;;;;;;1564699;74;1130;-67
2023/04/11 05:47:05;;;;;;;;;;;21.20;46.70;;;;;;1564428;74;1912;-67
2023/04/11 05:49:07;;;;;;;;;;;21.20;46.70;;;;;;1562491;75;1531;-67
2023/04/11 05:51:08;;;;;;;;;;;21.20;46.80;;;;;;1551158;75;742;-66
2023/04/11 05:53:10;;;;;;;;;;;21.20;46.80;;;;;;1551227;75;773;-66
2023/04/11 05:55:12;;;;;;;;;;;21.10;46.80;;;;;;1551261;75;1160;-66
2023/04/11 05:57:16;;;;;;;;;;;21.20;46.80;;;;;;1546184;75;790;-66
2023/04/11 05:59:18;;;;;;;;;;;21.10;46.80;;;;;;1549046;75;538;-66
2023/04/11 06:01:21;;;;;;;;;;;21.20;46.80;;;;;;1562949;75;772;-65
2023/04/11 06:03:23;;;;;;;;;;;21.20;46.80;;;;;;1544591;75;1457;-66
2023/04/11 06:05:25;;;;;;;;;;;21.20;46.80;;;;;;1552232;75;594;-67
2023/04/11 06:07:27;;;;;;;;;;;21.10;46.90;;;;;;1549801;75;1919;-68
2023/04/11 06:09:29;;;;;;;;;;;21.10;47.10;;;;;;1547483;75;789;-68
2023/04/11 06:11:31;;;;;;;;;;;21.20;47.00;;;;;;1548987;75;740;-68
2023/04/11 06:13:33;;;;;;;;;;;21.20;46.70;;;;;;1555776;75;1179;-68
2023/04/11 06:15:35;;;;;;;;;;;21.20;46.60;;;;;;1551566;75;739;-68
2023/04/11 06:17:37;;;;;;;;;;;21.20;46.40;;;;;;1550955;75;1477;-66
2023/04/11 06:19:39;;;;;;;;;;;21.30;46.60;;;;;;1539819;75;674;-67
2023/04/11 06:21:41;;;;;;;;;;;21.30;46.60;;;;;;1548282;75;628;-70
2023/04/11 06:23:42;;;;;;;;;;;21.30;46.60;;;;;;1554959;75;1139;-69
2023/04/11 06:25:45;;;;;;;;;;;21.20;46.50;;;;;;1552214;75;753;-69
2023/04/11 06:27:47;;;;;;;;;;;21.30;46.70;;;;;;1550451;75;1909;-67
2023/04/11 06:29:48;;;;;;;;;;;21.30;46.60;;;;;;1570922;75;740;-67
2023/04/11 06:31:50;;;;;;;;;;;21.30;46.70;;;;;;1549881;75;1552;-68
2023/04/11 06:33:52;;;;;;;;;;;21.30;46.60;;;;;;1551322;75;1169;-67
2023/04/11 06:35:55;;;;;;;;;;;21.40;46.50;;;;;;1552314;75;659;-67
2023/04/11 06:37:57;;;;;;;;;;;21.40;46.50;;;;;;1553839;75;627;-67
2023/04/11 06:39:59;;;;;;;;;;;21.30;46.60;;;;;;1565307;75;749;-67
2023/04/11 06:42:01;;;;;;;;;;;21.30;46.70;;;;;;1556734;75;803;-68
2023/04/11 06:44:03;;;;;;;;;;;21.20;46.60;;;;;;1543483;75;1088;-67
2023/04/11 06:46:06;;;;;;;;;;;21.30;46.80;;;;;;1566846;75;1555;-68
2023/04/11 06:48:08;;;;;;;;;;;21.30;46.80;;;;;;1553536;75;1908;-67
2023/04/11 06:50:10;;;;;;;;;;;21.30;46.90;;;;;;1548932;75;1102;-66
2023/04/11 06:52:12;;;;;;;;;;;21.20;46.80;;;;;;1569912;74;765;-67
2023/04/11 06:54:14;;;;;;;;;;;21.20;47.10;;;;;;1566299;74;1211;-66
2023/04/11 06:56:16;;;;;;;;;;;21.20;47.10;;;;;;1561399;74;747;-66
2023/04/11 06:58:18;;;;;;;;;;;21.30;47.00;;;;;;1560580;74;694;-66
2023/04/11 07:00:20;;;;;;;;;;;21.30;46.70;;;;;;1562414;75;1524;-66
2023/04/11 07:02:23;;;;;;;;;;;21.30;46.60;;;;;;1562866;75;709;-67
2023/04/11 07:04:25;;;;;;;;;;;21.30;46.60;;;;;;1558833;75;1152;-65
2023/04/11 07:06:27;;;;;;;;;;;21.30;46.50;;;;;;1561874;74;729;-66
2023/04/11 07:08:29;;;;;;;;;;;21.30;46.50;;;;;;1560678;74;1927;-67
2023/04/11 07:10:31;;;;;;;;;;;21.40;46.40;;;;;;1558034;74;685;-67
2023/04/11 07:12:33;;;;;;;;;;;21.30;46.20;;;;;;1557380;74;723;-67
2023/04/11 07:14:35;;;;;;;;;;;21.40;46.00;;;;;;1561732;74;1610;-66
2023/04/11 07:16:37;;;;;;;;;;;21.30;46.00;;;;;;1562640;74;737;-66
2023/04/11 07:18:39;;;;;;;;;;;21.40;45.90;;;;;;1562772;75;724;-68
2023/04/11 07:20:41;;;;;;;;;;;21.30;45.80;;;;;;1561566;74;838;-66
2023/04/11 07:22:43;;;;;;;;;;;21.30;45.70;;;;;;1562445;75;740;-66
2023/04/11 07:24:45;;;;;;;;;;;21.40;45.70;;;;;;1558164;74;1141;-65
2023/04/11 07:26:50;;;;;;;;;;;21.30;45.90;;;;;;1561370;74;600;-66
2023/04/11 07:28:50;;;;;;;;;;;21.30;46.00;;;;;;1562335;75;1935;-66
2023/04/11 07:30:52;;;;;;;;;;;21.20;45.60;;;;;;1562876;74;616;-66
2023/04/11 07:32:54;;;;;;;;;;;21.30;45.20;;;;;;1560363;75;732;-66
2023/04/11 07:34:56;;;;;;;;;;;21.30;45.40;;;;;;1564262;74;1155;-65
2023/04/11 07:36:59;;;;;;;;;;;21.10;45.10;;;;;;1562884;74;664;-66
2023/04/11 07:39:03;;;;;;;;;;;21.10;45.50;;;;;;1554556;75;749;-64
2023/04/11 07:41:05;;;;;;;;;;;21.00;45.60;;;;;;1560551;75;1558;-65
2023/04/11 07:43:07;;;;;;;;;;;21.00;45.40;;;;;;1556970;75;781;-64
2023/04/11 07:45:09;;;;;;;;;;;21.00;45.40;;;;;;1563890;75;1101;-66
2023/04/11 07:47:10;;;;;;;;;;;21.00;45.20;;;;;;1560387;75;846;-65
2023/04/11 07:49:12;;;;;;;;;;;21.00;45.60;;;;;;1557657;74;1946;-65
2023/04/11 07:51:15;;;;;;;;;;;21.00;45.60;;;;;;1555583;75;1051;-66
2023/04/11 07:53:17;;;;;;;;;;;21.10;45.70;;;;;;1552327;75;727;-66
2023/04/11 07:55:19;;;;;;;;;;;21.20;45.90;;;;;;1546836;75;1563;-65
2023/04/11 07:57:21;;;;;;;;;;;21.20;45.70;;;;;;1558998;75;744;-65
2023/04/11 07:59:23;;;;;;;;;;;21.20;45.70;;;;;;1556311;75;1237;-65
2023/04/11 08:01:25;;;;;;;;;;;21.20;45.60;;;;;;1551594;75;1090;-65
2023/04/11 08:03:27;;;;;;;;;;;21.30;45.70;;;;;;1551415;75;1497;-65
2023/04/11 08:05:29;;;;;;;;;;;21.20;45.50;;;;;;1551428;75;1515;-65
2023/04/11 08:07:31;;;;;;;;;;;21.30;45.50;;;;;;1540879;75;1934;-65
2023/04/11 08:09:33;;;;;;;;;;;21.20;45.30;;;;;;1547900;75;1538;-65
2023/04/11 08:11:35;;;;;;;;;;;21.30;45.40;;;;;;1551455;75;1545;-65
2023/04/11 08:13:38;;;;;;;;;;;21.30;45.30;;;;;;1550620;75;1447;-65
2023/04/11 08:15:40;;;;;;;;;;;21.30;45.30;;;;;;1549920;75;1468;-65
2023/04/11 08:17:42;;;;;;;;;;;21.30;45.30;;;;;;1547654;75;1408;-65
2023/04/11 08:19:44;;;;;;;;;;;21.30;45.30;;;;;;1545788;75;1594;-65
2023/04/11 08:21:46;;;;;;;;;;;21.40;45.30;;;;;;1556815;75;1542;-66
2023/04/11 08:23:48;;;;;;;;;;;21.30;45.30;;;;;;1549947;75;1576;-65
2023/04/11 08:25:50;;;;;;;;;;;21.30;45.30;;;;;;1558023;75;1451;-65
2023/04/11 08:27:52;;;;;;;;;;;21.30;45.30;;;;;;1551874;75;1926;-65
2023/04/11 08:29:54;;;;;;;;;;;21.30;45.20;;;;;;1550895;75;1364;-66
2023/04/11 08:31:56;;;;;;;;;;;21.30;45.30;;;;;;1553661;75;1260;-66
2023/04/11 08:33:59;;;;;;;;;;;21.40;45.20;;;;;;1558580;75;1218;-66
2023/04/11 08:36:00;;;;;;;;;;;21.30;45.20;;;;;;1549123;75;1684;-65
2023/04/11 08:38:02;;;;;;;;;;;21.30;45.20;;;;;;1540523;75;1466;-66
2023/04/11 08:40:05;;;;;;;;;;;21.30;45.00;;;;;;1550559;75;1200;-65
2023/04/11 08:42:07;;;;;;;;;;;21.30;44.80;;;;;;1547646;75;1516;-66
2023/04/11 08:44:10;;;;;;;;;;;21.20;44.60;;;;;;1540486;76;1452;-65
2023/04/11 08:46:12;;;;;;;;;;;21.30;44.70;;;;;;1552937;75;1477;-65
2023/04/11 08:48:14;;;;;;;;;;;21.30;44.80;;;;;;1544129;75;1944;-65
2023/04/11 08:50:16;;;;;;;;;;;21.30;44.80;;;;;;1551221;75;1422;-65
2023/04/11 08:52:22;;;;;;;;;;;21.30;44.80;;;;;;1552002;75;1510;-64
2023/04/11 08:54:24;;;;;;;;;;;21.30;44.80;;;;;;1548280;75;1336;-65
2023/04/11 08:56:25;;;;;;;;;;;21.30;44.80;;;;;;1549193;75;1133;-65
2023/04/11 08:58:28;;;;;;;;;;;21.30;45.00;;;;;;1545688;75;1563;-66
2023/04/11 09:00:31;;;;;;;;;;;21.20;44.80;;;;;;1551374;75;1516;-64
2023/04/11 09:02:33;;;;;;;;;;;21.30;45.00;;;;;;1555146;75;1239;-64
2023/04/11 09:04:40;;;;;;;;;;;21.30;45.00;;;;;;1561699;75;1559;-65
2023/04/11 09:06:42;;;;;;;;;;;21.30;45.00;;;;;;1556931;74;1493;-67
2023/04/11 09:08:44;;;;;;;;;;;21.20;45.00;;;;;;1542295;75;1928;-64
2023/04/11 09:10:45;;;;;;;;;;;21.20;45.00;;;;;;1563982;74;1348;-65
2023/04/11 09:12:47;;;;;;;;;;;21.30;45.20;;;;;;1561844;74;1478;-65
2023/04/11 09:14:49;;;;;;;;;;;21.20;45.00;;;;;;1570051;74;1529;-65
2023/04/11 09:17:01;;;;;;;;;;;21.30;45.20;;;;;;1560694;74;1352;-66
2023/04/11 09:19:03;;;;;;;;;;;21.30;45.20;;;;;;1563019;74;1210;-65
2023/04/11 09:21:06;;;;;;;;;;;21.30;45.20;;;;;;1563543;74;1455;-65
2023/04/11 09:23:08;;;;;;;;;;;21.30;45.20;;;;;;1564073;74;1376;-65
2023/04/11 09:25:10;;;;;;;;;;;21.30;45.30;;;;;;1545556;76;1490;-64
2023/04/11 09:27:12;;;;;;;;;;;21.20;45.20;;;;;;1566828;74;1355;-65
2023/04/11 09:29:15;;;;;;;;;;;21.30;45.30;;;;;;1565574;74;1927;-66
2023/04/11 09:31:17;;;;;;;;;;;21.20;45.20;;;;;;1564108;74;1234;-66
2023/04/11 09:33:21;;;;;;;;;;;21.30;45.30;;;;;;1562427;74;1456;-67
2023/04/11 09:35:23;;;;;;;;;;;21.30;45.40;;;;;;1561994;74;1939;-68
2023/04/11 09:37:25;;;;;;;;;;;21.30;45.50;;;;;;1564452;74;1075;-66
2023/04/11 09:39:28;;;;;;;;;;;21.20;45.30;;;;;;1563477;74;1465;-67
2023/04/11 09:41:31;;;;;;;;;;;21.30;45.40;;;;;;1566310;74;1400;-66
2023/04/11 09:43:51;;;;;;;;;;;21.20;45.30;;;;;;1569985;74;1102;-60
2023/04/11 09:46:08;;;;;;;;;;;21.30;45.50;;;;;;1568603;74;1435;-61
2023/04/11 09:48:10;;;;;;;;;;;21.30;45.40;;;;;;1564092;74;1926;-62
2023/04/11 09:50:12;;;;;;;;;;;21.30;45.50;;;;;;1566189;74;1236;-62
2023/04/11 09:52:14;;;;;;;;;;;21.20;45.40;;;;;;1563031;74;1455;-61
2023/04/11 09:54:16;;;;;;;;;;;21.30;45.50;;;;;;1570128;74;1472;-62
2023/04/11 09:56:18;;;;;;;;;;;21.30;45.50;;;;;;1567359;74;1133;-62
2023/04/11 09:58:20;;;;;;;;;;;21.40;45.50;;;;;;1564959;74;1501;-67
2023/04/11 10:00:27;;;;;;;;;;;21.30;45.50;;;;;;1556972;74;1500;-67
2023/04/11 10:02:28;;;;;;;;;;;21.20;45.40;;;;;;1567058;74;1507;-67
2023/04/11 10:04:31;;;;;;;;;;;21.30;45.50;;;;;;1559863;74;1145;-67
2023/04/11 10:06:52;;;;;;;;;;;21.20;45.50;;;;;;1566951;74;1450;-67
2023/04/11 10:08:54;;;;;;;;;;;21.30;45.60;;;;;;1560496;74;1955;-67
2023/04/11 10:10:57;;;;;;;;;;;21.20;45.50;;;;;;1546842;75;1422;-67
2023/04/11 10:12:58;;;;;;;;;;;21.30;45.60;;;;;;1567846;74;1468;-66
2023/04/11 10:15:09;;;;;;;;;;;21.30;45.60;;;;;;1560461;74;1482;-67
2023/04/11 10:17:13;;;;;;;;;;;21.30;45.60;;;;;;1561625;74;1690;-67
2023/04/11 10:19:19;;;;;;;;;;;21.30;45.70;;;;;;1563435;74;1514;-67
2023/04/11 10:21:32;;;;;;;;;;;21.30;45.70;;;;;;1559614;74;1270;-67
2023/04/11 10:23:41;;;;;;;;;;;21.30;45.70;;;;;;1563847;74;1394;-67
2023/04/11 10:25:50;;;;;;;;;;;21.30;45.70;;;;;;1519283;76;1705;-67
2023/04/11 10:28:05;;;;;;;;;;;21.30;45.70;;;;;;1566580;74;1461;-67
2023/04/11 10:30:08;;;;;;;;;;;21.30;45.70;;;;;;1560906;74;1917;-67
2023/04/11 10:32:14;;;;;;;;;;;21.20;45.60;;;;;;1570638;75;1164;-67
2023/04/11 10:34:16;;;;;;;;;;;21.30;45.70;;;;;;1564115;74;2090;-65
2023/04/11 10:36:18;;;;;;;;;;;21.30;45.80;;;;;;1565910;74;1507;-70
2023/04/11 10:38:39;;;;;;;;;;;21.20;45.70;;;;;;1561908;74;1492;-68
2023/04/11 10:40:43;;;;;;;;;;;21.20;45.70;;;;;;1557044;74;1485;-70
2023/04/11 10:42:45;;;;;;;;;;;21.30;45.80;;;;;;1556015;74;1693;-68
2023/04/11 10:44:47;;;;;;;;;;;21.30;45.80;;;;;;1558950;74;1558;-67
2023/04/11 10:46:52;;;;;;;;;;;21.30;45.80;;;;;;1545834;76;1571;-68
2023/04/11 10:49:01;;;;;;;;;;;21.20;45.70;;;;;;1561242;74;1933;-68
2023/04/11 10:51:03;;;;;;;;;;;21.30;45.80;;;;;;1565585;74;1483;-69
2023/04/11 10:53:06;;;;;;;;;;;21.40;45.80;;;;;;1549043;75;1546;-69
2023/04/11 10:55:15;;;;;;;;;;;21.30;45.90;;;;;;1554493;74;1478;-71
2023/04/11 10:57:17;;;;;;;;;;;21.30;45.90;;;;;;1563035;74;1484;-68
2023/04/11 10:59:27;;;;;;;;;;;21.30;46.00;;;;;;1566805;74;1460;-70
2023/04/11 11:01:29;;;;;;;;;;;21.30;46.00;;;;;;1553969;74;1205;-69
2023/04/11 11:03:32;;;;;;;;;;;21.40;46.00;;;;;;1560918;74;1217;-69
2023/04/11 11:05:34;;;;;;;;;;;21.30;46.10;;;;;;1559237;74;1073;-68
2023/04/11 11:07:36;;;;;;;;;;;21.40;46.00;;;;;;1562143;74;1578;-71
2023/04/11 11:09:38;;;;;;;;;;;21.40;46.00;;;;;;1563317;74;1934;-72
2023/04/11 11:11:40;;;;;;;;;;;21.40;46.00;;;;;;1555549;74;1259;-68
2023/04/11 11:13:42;;;;;;;;;;;21.30;46.00;;;;;;1565216;74;1708;-68
2023/04/11 11:15:48;;;;;;;;;;;21.30;45.90;;;;;;1562614;74;1491;-68
2023/04/11 11:17:50;;;;;;;;;;;21.40;45.80;;;;;;1566900;74;1087;-69
2023/04/11 11:19:52;;;;;;;;;;;21.40;45.60;;;;;;1554376;74;1456;-68
2023/04/11 11:21:54;;;;;;;;;;;21.40;45.50;;;;;;1563624;74;1441;-68
2023/04/11 11:23:59;;;;;;;;;;;21.40;45.50;;;;;;1559423;74;1497;-69
2023/04/11 11:26:01;;;;;;;;;;;21.40;45.50;;;;;;1566491;74;1546;-67
2023/04/11 11:28:06;;;;;;;;;;;21.50;45.50;;;;;;1567625;76;1358;-70
2023/04/11 11:30:12;;;;;;;;;;;21.50;45.60;;;;;;1566010;74;1935;-68
2023/04/11 11:32:23;;;;;;;;;;;21.40;45.40;;;;;;1560704;74;1486;-69
2023/04/11 11:34:28;;;;;;;;;;;21.50;45.50;;;;;;1561479;74;1755;-67
2023/04/11 11:36:31;;;;;;;;;;;21.40;45.40;;;;;;1545222;75;1491;-67
2023/04/11 11:38:33;;;;;;;;;;;21.40;45.40;;;;;;1563342;74;1479;-67
2023/04/11 11:40:35;;;;;;;;;;;21.40;45.40;;;;;;1557409;74;1502;-69
2023/04/11 11:42:38;;;;;;;;;;;21.40;45.40;;;;;;1556089;74;1529;-70
2023/04/11 11:44:40;;;;;;;;;;;21.50;45.50;;;;;;1562605;74;1484;-69
2023/04/11 11:46:43;;;;;;;;;;;21.30;45.40;;;;;;1565635;74;1240;-67
2023/04/11 11:48:58;;;;;;;;;;;21.40;45.30;;;;;;1562875;74;1920;-68
2023/04/11 11:51:00;;;;;;;;;;;21.30;45.30;;;;;;1559474;74;1503;-70
2023/04/11 11:53:12;;;;;;;;;;;21.40;45.30;;;;;;1555448;75;1312;-68
2023/04/11 11:55:21;;;;;;;;;;;21.30;45.30;;;;;;1560470;74;1551;-67
2023/04/11 11:57:23;;;;;;;;;;;21.40;45.30;;;;;;1560646;74;1156;-67
2023/04/11 11:59:27;;;;;;;;;;;21.20;45.40;;;;;;1567295;74;1311;-65
2023/04/11 12:01:30;;;;;;;;;;;21.30;45.70;;;;;;1563486;74;1156;-67
2023/04/11 12:03:32;;;;;;;;;;;21.20;45.70;;;;;;1563104;74;1114;-67
2023/04/11 12:05:34;;;;;;;;;;;21.30;45.90;;;;;;1534618;76;1337;-67
2023/04/11 12:07:36;;;;;;;;;;;21.20;45.90;;;;;;1551187;75;1087;-67
2023/04/11 12:09:38;;;;;;;;;;;21.30;46.10;;;;;;1549395;75;1939;-66